Hauptseite
METAR-TAF:

METAR-TAF

Flughäfen :

Cambridge, England

Breite: 52-12N, Länge: 000-11E, Höhe: 15 m

Beobachtung

Neuester Wetterbericht von vor 7 Stunden und 7 Minuten, um 17:50 UTC
Wind 11 kt aus West
Temperatur 4°C
Luftfeuchtigkeit 70%
Luftdruck 1007 hPa
Sichtweite 10 km oder mehr
Leicht bewölkt in der Höhe von 4700 ft

METAR: EGSC 191750Z 26011KT 9999 FEW047 04/M01 Q1007

Zeit: 00:57 (00:57 UTC)

Prognose

Neuester Wetterbericht von vor 7 Stunden und 52 Minuten, um 17:05 UTC
Gültige Prognose vom 19 um 18 UTC bis 19 um 21 UTC
Wind 8 kt aus West/Südwest
Sichtweite 10 km oder mehr
Leicht bewölkt in der Höhe von 3000 ft

TAF: EGSC 191705Z 1918/1921 24008KT 9999 FEW030

Wetterbeobachtungen und Prognosen von mehr als 4000 Flughäfen (METAR und TAF Bericht).

Die verfügbaren Stationen werden durch gelbe und rote Markierungen auf der Karte dargestellt.

Führen Sie die Maus auf sie, um den Namen der Station zu sehen.

Darauf klicken, um die Beobachtung von Wetterbeobachtungen und Prognosen zu sehen.

Um die Karte zu ändern : klicken Sie auf den grünen Tasten mit einem schwarzen Kreuz Zum Vergrößern, auf den grünen Button mit einem Gedankenstrich zu verkleinern, oder auf die grünen Pfeile für benachbarte Karten.


METAR-TAF: